Time;durP1;ratioP1;P1;durP2;ratioP2;P2;SDS_P1;SDS_P2;PMS_P1;PMS_P2;Temp;Humidity;BMP_temperature;BMP_pressure;BME280_temperature;BME280_humidity;BME280_pressure;Samples;Min_cycle;Max_cycle;Signal;HPM_P1;HPM_P2
2021/04/04 00:02:05;;;;;;;25.27;8.85;;;;;;;;;;5091331;28;20051;-72
2021/04/04 00:04:30;;;;;;;37.53;10.65;;;;;;;;;;5094037;28;20478;-72
2021/04/04 00:06:56;;;;;;;25.50;8.68;;;;;;;;;;5093537;28;20028;-73
2021/04/04 00:09:21;;;;;;;30.23;10.00;;;;;;;;;;5093492;28;20406;-73
2021/04/04 00:11:49;;;;;;;29.88;9.40;;;;;;;;;;5091416;28;20024;-73
2021/04/04 00:14:14;;;;;;;24.15;10.00;;;;;;;;;;5092539;28;20454;-72
2021/04/04 00:16:40;;;;;;;24.73;10.60;;;;;;;;;;5092021;28;20115;-72
2021/04/04 00:19:05;;;;;;;37.03;11.98;;;;;;;;;;5092794;28;20063;-72
2021/04/04 00:21:30;;;;;;;27.20;10.40;;;;;;;;;;5093834;28;20039;-73
2021/04/04 00:23:56;;;;;;;23.67;8.70;;;;;;;;;;5092379;28;20036;-72
2021/04/04 00:26:21;;;;;;;22.90;10.05;;;;;;;;;;5092940;28;20028;-72
2021/04/04 00:28:47;;;;;;;21.80;8.98;;;;;;;;;;5092520;28;20498;-73
2021/04/04 00:31:12;;;;;;;22.60;7.82;;;;;;;;;;5091954;28;20089;-73
2021/04/04 00:33:38;;;;;;;24.00;8.60;;;;;;;;;;5092537;28;20031;-73
2021/04/04 00:36:04;;;;;;;20.75;8.05;;;;;;;;;;5091454;28;20028;-73
2021/04/04 00:38:29;;;;;;;19.00;7.70;;;;;;;;;;5092484;28;20040;-72
2021/04/04 00:40:55;;;;;;;32.45;9.35;;;;;;;;;;5093398;28;20081;-73
2021/04/04 00:43:20;;;;;;;18.90;7.53;;;;;;;;;;5093406;28;20378;-72
2021/04/04 00:45:46;;;;;;;18.27;7.32;;;;;;;;;;5093199;28;20489;-72
2021/04/04 00:48:11;;;;;;;24.48;8.32;;;;;;;;;;5092681;28;20131;-72
2021/04/04 00:50:39;;;;;;;21.73;8.50;;;;;;;;;;5093622;28;20528;-73
2021/04/04 00:53:06;;;;;;;27.58;9.50;;;;;;;;;;5091601;28;20482;-72
2021/04/04 00:55:32;;;;;;;25.00;7.70;;;;;;;;;;5092381;28;20039;-73
2021/04/04 00:57:57;;;;;;;23.20;8.23;;;;;;;;;;5092406;28;20036;-72
2021/04/04 01:00:28;;;;;;;23.88;7.85;;;;;;;;;;5091444;28;20367;-72
2021/04/04 01:02:55;;;;;;;20.45;7.82;;;;;;;;;;5090763;28;20478;-72
2021/04/04 01:05:29;;;;;;;21.70;8.43;;;;;;;;;;5092127;28;20036;-72
2021/04/04 01:07:57;;;;;;;20.58;7.97;;;;;;;;;;5091411;28;20032;-73
2021/04/04 01:10:26;;;;;;;27.73;8.23;;;;;;;;;;5092875;28;20040;-73
2021/04/04 01:13:13;;;;;;;26.90;8.65;;;;;;;;;;5074698;28;20474;-73
2021/04/04 01:16:01;;;;;;;27.70;7.07;;;;;;;;;;5091831;28;20040;-73
2021/04/04 01:18:34;;;;;;;23.75;6.82;;;;;;;;;;5091659;28;20040;-73
2021/04/04 01:21:16;;;;;;;23.85;7.18;;;;;;;;;;5093048;28;20036;-73
2021/04/04 01:23:48;;;;;;;24.50;6.13;;;;;;;;;;5090565;28;20036;-73
2021/04/04 01:26:32;;;;;;;17.13;6.35;;;;;;;;;;5092341;28;20549;-73
2021/04/04 01:28:57;;;;;;;26.00;7.20;;;;;;;;;;5092444;28;20135;-73
2021/04/04 01:31:25;;;;;;;32.95;8.30;;;;;;;;;;5090919;28;20127;-73
2021/04/04 01:33:52;;;;;;;27.98;8.52;;;;;;;;;;5091168;28;20482;-72
2021/04/04 01:36:19;;;;;;;27.80;8.13;;;;;;;;;;5073793;28;20660;-73
2021/04/04 01:38:45;;;;;;;33.28;9.02;;;;;;;;;;5092629;28;20035;-73
2021/04/04 01:41:23;;;;;;;26.23;8.95;;;;;;;;;;5092885;28;20028;-73
2021/04/04 01:43:51;;;;;;;33.63;8.13;;;;;;;;;;5092838;28;20032;-73
2021/04/04 01:46:17;;;;;;;24.20;7.50;;;;;;;;;;5092466;28;20040;-73
2021/04/04 01:48:43;;;;;;;29.23;8.32;;;;;;;;;;5091709;28;20052;-72
2021/04/04 01:51:11;;;;;;;24.58;7.28;;;;;;;;;;5090921;28;20532;-73
2021/04/04 01:53:39;;;;;;;21.13;6.80;;;;;;;;;;5092718;28;20535;-73
2021/04/04 01:56:05;;;;;;;28.15;7.97;;;;;;;;;;5091131;28;20024;-73
2021/04/04 01:58:32;;;;;;;36.13;9.40;;;;;;;;;;5091113;28;20043;-73
2021/04/04 02:00:58;;;;;;;31.40;9.45;;;;;;;;;;5091061;28;20425;-72
2021/04/04 02:03:24;;;;;;;24.20;7.05;;;;;;;;;;5092465;28;20031;-73
2021/04/04 02:05:51;;;;;;;30.40;8.30;;;;;;;;;;5091539;28;20056;-73
2021/04/04 02:08:18;;;;;;;34.13;8.77;;;;;;;;;;5094042;28;20675;-73
2021/04/04 02:10:44;;;;;;;25.65;7.88;;;;;;;;;;5096193;28;20102;-73
2021/04/04 02:13:11;;;;;;;27.83;8.50;;;;;;;;;;5096103;28;20040;-73
2021/04/04 02:15:37;;;;;;;28.90;8.45;;;;;;;;;;5094596;28;20078;-73
2021/04/04 02:18:07;;;;;;;26.25;7.70;;;;;;;;;;5092517;28;20036;-72
2021/04/04 02:20:34;;;;;;;24.23;8.32;;;;;;;;;;5095471;28;20032;-73
2021/04/04 02:23:02;;;;;;;22.20;6.80;;;;;;;;;;5078192;28;20109;-73
2021/04/04 02:25:27;;;;;;;31.17;9.35;;;;;;;;;;5095202;28;20135;-73
2021/04/04 02:27:53;;;;;;;24.38;7.30;;;;;;;;;;5095845;28;20103;-73
2021/04/04 02:30:19;;;;;;;24.10;8.80;;;;;;;;;;5095620;28;20044;-73
2021/04/04 02:32:49;;;;;;;33.40;8.27;;;;;;;;;;5095594;28;20047;-73
2021/04/04 02:35:21;;;;;;;27.17;8.35;;;;;;;;;;5095860;28;20047;-73
2021/04/04 02:37:47;;;;;;;20.73;7.50;;;;;;;;;;5095535;28;20077;-73
2021/04/04 02:40:15;;;;;;;27.10;7.07;;;;;;;;;;5095739;28;20485;-73
2021/04/04 02:42:43;;;;;;;20.75;7.13;;;;;;;;;;5095779;28;20064;-73
2021/04/04 02:45:09;;;;;;;34.75;7.20;;;;;;;;;;5093719;28;20032;-73
2021/04/04 02:47:39;;;;;;;32.78;8.23;;;;;;;;;;5092976;28;20482;-73
2021/04/04 02:50:07;;;;;;;23.33;7.95;;;;;;;;;;5094546;28;20378;-73
2021/04/04 02:52:37;;;;;;;32.80;8.85;;;;;;;;;;5095224;28;20409;-73
2021/04/04 02:55:03;;;;;;;29.58;7.97;;;;;;;;;;5095293;28;20039;-73
2021/04/04 02:57:30;;;;;;;39.83;10.27;;;;;;;;;;5095336;28;20032;-73
2021/04/04 03:00:03;;;;;;;34.38;9.50;;;;;;;;;;5095320;28;20032;-73
2021/04/04 03:02:30;;;;;;;28.65;7.93;;;;;;;;;;5092933;28;20024;-73
2021/04/04 03:04:56;;;;;;;34.42;9.20;;;;;;;;;;5095047;28;20054;-74
2021/04/04 03:07:26;;;;;;;32.20;7.25;;;;;;;;;;5093459;28;20093;-73
2021/04/04 03:09:53;;;;;;;34.75;8.38;;;;;;;;;;5094032;28;20044;-72
2021/04/04 03:12:22;;;;;;;25.73;7.63;;;;;;;;;;5092375;28;20103;-73
2021/04/04 03:14:50;;;;;;;28.92;8.35;;;;;;;;;;5093746;28;20058;-73
2021/04/04 03:17:16;;;;;;;26.88;7.35;;;;;;;;;;5093305;28;20031;-73
2021/04/04 03:19:44;;;;;;;24.08;6.82;;;;;;;;;;5092922;28;20422;-73
2021/04/04 03:22:11;;;;;;;30.73;7.18;;;;;;;;;;5094932;28;20063;-73
2021/04/04 03:24:39;;;;;;;28.17;7.00;;;;;;;;;;5094269;28;20034;-73
2021/04/04 03:27:06;;;;;;;26.08;7.40;;;;;;;;;;5093057;28;20028;-73
2021/04/04 03:29:33;;;;;;;41.63;9.40;;;;;;;;;;5091903;28;20048;-73
2021/04/04 03:31:58;;;;;;;32.55;6.88;;;;;;;;;;5092313;28;20064;-73
2021/04/04 03:34:24;;;;;;;26.23;7.28;;;;;;;;;;5094084;28;20490;-73
2021/04/04 03:36:52;;;;;;;26.27;7.10;;;;;;;;;;5093844;28;20039;-72
2021/04/04 03:39:17;;;;;;;22.25;7.63;;;;;;;;;;5094137;28;20070;-73
2021/04/04 03:41:44;;;;;;;22.33;7.25;;;;;;;;;;5093460;28;20430;-73
2021/04/04 03:44:11;;;;;;;27.38;7.78;;;;;;;;;;5092952;28;20044;-73
2021/04/04 03:46:38;;;;;;;33.30;6.72;;;;;;;;;;5090886;28;20043;-73
2021/04/04 03:49:06;;;;;;;21.48;7.22;;;;;;;;;;5092446;28;20386;-73
2021/04/04 03:51:32;;;;;;;32.42;7.40;;;;;;;;;;5092631;28;20500;-72
2021/04/04 03:53:58;;;;;;;24.02;6.43;;;;;;;;;;5093632;28;20050;-73
2021/04/04 03:56:26;;;;;;;26.10;7.05;;;;;;;;;;5093230;28;20095;-73
2021/04/04 03:58:55;;;;;;;25.70;6.55;;;;;;;;;;5094044;28;20032;-73
2021/04/04 04:01:23;;;;;;;29.05;7.72;;;;;;;;;;5092984;28;20074;-72
2021/04/04 04:03:49;;;;;;;25.40;8.27;;;;;;;;;;5093534;28;20118;-73
2021/04/04 04:06:16;;;;;;;25.27;6.10;;;;;;;;;;5093971;28;20036;-72
2021/04/04 04:08:42;;;;;;;32.28;8.35;;;;;;;;;;5093924;28;20024;-72
2021/04/04 04:11:09;;;;;;;31.38;7.40;;;;;;;;;;5093916;28;20386;-73
2021/04/04 04:13:36;;;;;;;22.77;7.10;;;;;;;;;;5092575;28;20044;-73
2021/04/04 04:16:02;;;;;;;27.23;6.65;;;;;;;;;;5091007;28;20032;-73
2021/04/04 04:18:29;;;;;;;26.40;7.20;;;;;;;;;;5091658;28;20412;-72
2021/04/04 04:20:55;;;;;;;27.02;7.43;;;;;;;;;;5092404;28;20641;-73
2021/04/04 04:23:22;;;;;;;23.35;5.80;;;;;;;;;;5091459;28;20040;-73
2021/04/04 04:25:49;;;;;;;25.33;7.35;;;;;;;;;;5091257;28;20048;-72
2021/04/04 04:28:16;;;;;;;31.98;6.95;;;;;;;;;;5093350;28;20123;-72
2021/04/04 04:30:42;;;;;;;22.48;7.05;;;;;;;;;;5093296;28;20051;-73
2021/04/04 04:33:12;;;;;;;29.95;7.28;;;;;;;;;;5091632;28;20038;-73
2021/04/04 04:35:38;;;;;;;32.83;8.13;;;;;;;;;;5092981;28;20067;-73
2021/04/04 04:38:04;;;;;;;22.92;6.25;;;;;;;;;;5093542;28;20050;-73
2021/04/04 04:40:30;;;;;;;24.83;6.43;;;;;;;;;;5092972;28;20032;-73
2021/04/04 04:42:57;;;;;;;34.22;7.00;;;;;;;;;;5090823;28;20032;-73
2021/04/04 04:45:37;;;;;;;29.02;7.25;;;;;;;;;;5089477;28;20032;-73
2021/04/04 04:48:03;;;;;;;20.70;5.85;;;;;;;;;;5089307;28;20051;-73
2021/04/04 04:50:29;;;;;;;16.92;5.57;;;;;;;;;;5092382;28;20522;-73
2021/04/04 04:52:58;;;;;;;24.05;6.00;;;;;;;;;;5092048;28;20035;-73
2021/04/04 04:55:24;;;;;;;24.65;7.13;;;;;;;;;;5092263;28;20028;-73
2021/04/04 04:57:50;;;;;;;28.77;6.72;;;;;;;;;;5091849;28;20150;-73
2021/04/04 05:00:16;;;;;;;23.98;6.53;;;;;;;;;;5091781;28;20155;-73
2021/04/04 05:02:42;;;;;;;29.05;7.00;;;;;;;;;;5090645;28;20035;-73
2021/04/04 05:05:10;;;;;;;23.70;6.25;;;;;;;;;;5091533;28;20036;-73
2021/04/04 05:07:37;;;;;;;27.10;6.38;;;;;;;;;;5092839;28;20051;-73
2021/04/04 05:10:05;;;;;;;27.13;5.63;;;;;;;;;;5092404;28;20161;-73
2021/04/04 05:12:31;;;;;;;20.75;6.95;;;;;;;;;;5089788;28;20464;-73
2021/04/04 05:15:01;;;;;;;29.48;6.28;;;;;;;;;;5090700;28;20040;-73
2021/04/04 05:17:31;;;;;;;22.58;5.45;;;;;;;;;;5091397;28;20032;-73
2021/04/04 05:19:57;;;;;;;24.92;6.97;;;;;;;;;;5091722;28;20046;-73
2021/04/04 05:22:22;;;;;;;24.67;6.13;;;;;;;;;;5092719;28;20032;-73
2021/04/04 05:24:48;;;;;;;26.13;6.00;;;;;;;;;;5092453;28;20422;-73
2021/04/04 05:27:14;;;;;;;27.58;6.82;;;;;;;;;;5092084;28;20063;-74
2021/04/04 05:29:39;;;;;;;21.27;7.32;;;;;;;;;;5077963;28;20090;-74
2021/04/04 05:32:10;;;;;;;24.17;6.97;;;;;;;;;;5072531;28;20068;-73
2021/04/04 05:34:38;;;;;;;18.00;5.25;;;;;;;;;;5072964;28;20498;-73
2021/04/04 05:37:05;;;;;;;22.42;6.40;;;;;;;;;;5072557;28;20095;-73
2021/04/04 05:39:34;;;;;;;21.55;5.97;;;;;;;;;;5072296;28;20055;-73
2021/04/04 05:42:02;;;;;;;19.63;6.95;;;;;;;;;;5072667;28;20032;-72
2021/04/04 05:44:36;;;;;;;25.77;5.75;;;;;;;;;;5083932;28;20481;-72
2021/04/04 05:47:10;;;;;;;22.75;6.72;;;;;;;;;;5095544;28;20035;-72
2021/04/04 05:49:49;;;;;;;25.55;6.88;;;;;;;;;;5094082;28;20055;-72
2021/04/04 05:52:46;;;;;;;20.50;5.55;;;;;;;;;;5095197;28;20489;-73
2021/04/04 05:55:18;;;;;;;24.15;6.25;;;;;;;;;;5085633;28;20024;-73
2021/04/04 05:57:56;;;;;;;18.70;6.10;;;;;;;;;;5088550;28;20043;-73
2021/04/04 06:00:25;;;;;;;17.55;5.47;;;;;;;;;;5095499;28;20040;-73
2021/04/04 06:03:12;;;;;;;15.98;5.63;;;;;;;;;;5095060;28;20044;-72
2021/04/04 06:05:53;;;;;;;23.95;5.47;;;;;;;;;;5096330;28;20031;-72
2021/04/04 06:08:34;;;;;;;26.65;5.10;;;;;;;;;;5095795;28;20515;-72
2021/04/04 06:11:39;;;;;;;23.88;5.07;;;;;;;;;;5095619;28;20055;-69
2021/04/04 06:14:20;;;;;;;19.45;5.88;;;;;;;;;;5095481;28;20035;-71
2021/04/04 06:16:55;;;;;;;22.70;5.20;;;;;;;;;;5095836;28;20119;-72
2021/04/04 06:19:34;;;;;;;24.30;5.45;;;;;;;;;;5094773;28;20032;-73
2021/04/04 06:22:11;;;;;;;17.60;6.40;;;;;;;;;;5094891;28;20182;-73
2021/04/04 06:24:46;;;;;;;19.75;5.13;;;;;;;;;;5095386;28;20122;-72
2021/04/04 06:27:24;;;;;;;13.75;4.55;;;;;;;;;;5093984;28;20467;-73
2021/04/04 06:30:20;;;;;;;27.48;5.50;;;;;;;;;;5094367;28;20541;-72
2021/04/04 06:32:57;;;;;;;23.15;6.90;;;;;;;;;;5095411;28;20065;-73
2021/04/04 06:35:40;;;;;;;18.48;4.32;;;;;;;;;;5095756;28;20032;-72
2021/04/04 06:38:18;;;;;;;13.07;4.63;;;;;;;;;;5094204;28;20093;-72
2021/04/04 06:40:54;;;;;;;18.40;4.88;;;;;;;;;;5094694;28;20100;-72
2021/04/04 06:43:30;;;;;;;12.73;4.82;;;;;;;;;;5093704;28;20043;-74
2021/04/04 06:46:04;;;;;;;;;;;;;;;;;;5096114;28;20370;-74
2021/04/04 06:48:54;;;;;;;16.27;4.85;;;;;;;;;;5095068;28;19912;-75
2021/04/04 06:51:43;;;;;;;27.95;5.55;;;;;;;;;;5095476;28;20126;-71
2021/04/04 06:54:38;;;;;;;17.27;5.13;;;;;;;;;;5092897;28;20037;-73
2021/04/04 06:57:31;;;;;;;27.15;6.00;;;;;;;;;;5095393;28;20032;-73
2021/04/04 07:00:03;;;;;;;16.38;4.47;;;;;;;;;;5095112;28;20457;-73
2021/04/04 07:02:40;;;;;;;17.98;5.53;;;;;;;;;;5095530;28;20089;-73
2021/04/04 07:05:10;;;;;;;15.70;4.28;;;;;;;;;;5069271;28;20055;-72
2021/04/04 07:07:57;;;;;;;16.20;4.70;;;;;;;;;;5079409;28;20423;-72
2021/04/04 07:10:40;;;;;;;18.33;4.90;;;;;;;;;;5085580;28;20366;-74
2021/04/04 07:13:31;;;;;;;21.80;4.57;;;;;;;;;;5091908;28;20040;-72
2021/04/04 07:16:19;;;;;;;21.60;5.72;;;;;;;;;;5093108;28;20032;-73
2021/04/04 07:19:06;;;;;;;14.15;4.55;;;;;;;;;;5091674;28;20031;-76
2021/04/04 07:22:05;;;;;;;25.83;5.03;;;;;;;;;;5095033;28;20382;-74
2021/04/04 07:24:40;;;;;;;26.15;6.10;;;;;;;;;;5095118;28;20036;-75
2021/04/04 07:27:21;;;;;;;22.70;5.57;;;;;;;;;;5091731;28;20028;-77
2021/04/04 07:33:00;;;;;;;19.42;4.38;;;;;;;;;;5094947;28;20093;-74
2021/04/04 07:35:33;;;;;;;17.73;5.30;;;;;;;;;;5094757;28;20036;-76
2021/04/04 07:38:06;;;;;;;18.42;4.72;;;;;;;;;;5092817;28;20032;-76
2021/04/04 07:40:59;;;;;;;23.15;4.72;;;;;;;;;;5094703;28;20040;-74
2021/04/04 07:43:35;;;;;;;28.35;5.50;;;;;;;;;;5092114;28;20055;-74
2021/04/04 07:46:09;;;;;;;15.85;4.47;;;;;;;;;;5094448;28;20047;-74
2021/04/04 07:48:42;;;;;;;19.77;4.10;;;;;;;;;;5092217;28;20085;-74
2021/04/04 07:51:12;;;;;;;20.05;4.72;;;;;;;;;;5094396;28;20034;-74
2021/04/04 07:54:04;;;;;;;17.75;5.03;;;;;;;;;;5094584;28;20443;-74
2021/04/04 07:56:43;;;;;;;21.65;5.07;;;;;;;;;;5094497;28;20035;-74
2021/04/04 07:59:08;;;;;;;16.15;4.38;;;;;;;;;;5091901;28;20383;-74
2021/04/04 08:02:09;;;;;;;23.08;5.50;;;;;;;;;;5093266;28;20032;-74
2021/04/04 08:05:14;;;;;;;16.95;4.30;;;;;;;;;;5092917;28;20075;-74
2021/04/04 08:07:54;;;;;;;23.70;5.47;;;;;;;;;;5062057;28;20103;-74
2021/04/04 08:10:33;;;;;;;16.85;4.38;;;;;;;;;;5060532;28;20028;-74
2021/04/04 08:13:23;;;;;;;21.42;4.35;;;;;;;;;;5073293;28;20063;-76
2021/04/04 08:16:17;;;;;;;20.95;5.22;;;;;;;;;;5091960;28;20055;-76
2021/04/04 08:18:43;;;;;;;15.98;3.72;;;;;;;;;;5078658;28;20097;-76
2021/04/04 08:21:20;;;;;;;15.82;5.00;;;;;;;;;;5092577;28;20070;-76
2021/04/04 08:23:52;;;;;;;19.63;4.95;;;;;;;;;;5094007;28;20035;-76
2021/04/04 08:26:27;;;;;;;18.73;5.07;;;;;;;;;;5093660;28;20040;-75
2021/04/04 08:29:04;;;;;;;23.02;5.05;;;;;;;;;;5093274;28;20047;-76
2021/04/04 08:31:38;;;;;;;16.60;5.18;;;;;;;;;;5092480;28;20036;-76
2021/04/04 08:34:27;;;;;;;16.08;5.32;;;;;;;;;;5093803;28;20028;-76
2021/04/04 08:36:57;;;;;;;23.98;4.78;;;;;;;;;;5093544;28;20028;-75
2021/04/04 08:39:29;;;;;;;17.92;4.40;;;;;;;;;;5093681;28;20430;-76
2021/04/04 08:41:58;;;;;;;12.75;4.05;;;;;;;;;;5092244;28;20036;-76
2021/04/04 08:44:28;;;;;;;17.77;4.53;;;;;;;;;;5093630;28;20067;-76
2021/04/04 08:47:21;;;;;;;24.38;5.50;;;;;;;;;;5092486;28;20131;-76
2021/04/04 08:49:47;;;;;;;19.08;4.65;;;;;;;;;;5093633;28;20040;-76
2021/04/04 08:52:18;;;;;;;22.40;4.75;;;;;;;;;;5092120;28;20035;-76
2021/04/04 08:54:48;;;;;;;25.40;4.95;;;;;;;;;;5093524;28;20438;-76
2021/04/04 08:57:14;;;;;;;23.25;6.18;;;;;;;;;;5092866;28;20394;-76
2021/04/04 08:59:43;;;;;;;22.30;5.18;;;;;;;;;;5092103;28;20036;-76
2021/04/04 09:02:12;;;;;;;16.50;4.80;;;;;;;;;;5092249;28;20378;-76
2021/04/04 09:04:40;;;;;;;21.10;5.30;;;;;;;;;;5092520;28;20036;-76
2021/04/04 09:07:07;;;;;;;17.67;4.45;;;;;;;;;;5093159;28;20043;-76
2021/04/04 09:09:44;;;;;;;16.25;4.30;;;;;;;;;;5093321;28;20110;-76
2021/04/04 09:12:10;;;;;;;17.70;4.22;;;;;;;;;;5090698;28;20075;-76
2021/04/04 09:14:43;;;;;;;20.70;4.57;;;;;;;;;;5092415;28;20036;-76
2021/04/04 09:17:12;;;;;;;20.45;5.15;;;;;;;;;;5092986;28;20412;-76
2021/04/04 09:19:40;;;;;;;24.60;5.38;;;;;;;;;;5097424;28;20032;-76
2021/04/04 09:22:08;;;;;;;18.23;5.57;;;;;;;;;;5079263;28;20126;-76
2021/04/04 09:24:46;;;;;;;19.20;4.82;;;;;;;;;;5097381;28;20051;-76
2021/04/04 09:27:16;;;;;;;21.08;4.53;;;;;;;;;;5096959;28;20035;-76
2021/04/04 09:29:45;;;;;;;21.63;5.05;;;;;;;;;;5097095;28;20048;-76
2021/04/04 09:32:16;;;;;;;22.60;5.38;;;;;;;;;;5097307;28;20032;-76
2021/04/04 09:34:43;;;;;;;16.45;4.05;;;;;;;;;;5096882;28;20385;-76
2021/04/04 09:37:10;;;;;;;28.40;4.90;;;;;;;;;;5095545;28;20081;-76
2021/04/04 09:39:38;;;;;;;18.15;3.97;;;;;;;;;;5096936;28;20073;-76
2021/04/04 09:42:04;;;;;;;11.95;3.40;;;;;;;;;;5096902;28;20055;-76
2021/04/04 09:44:31;;;;;;;22.42;4.20;;;;;;;;;;5096797;28;20451;-76
2021/04/04 09:47:01;;;;;;;18.52;4.53;;;;;;;;;;5095825;28;20456;-76
2021/04/04 09:49:37;;;;;;;11.90;3.53;;;;;;;;;;5096931;28;20535;-76
2021/04/04 09:52:29;;;;;;;11.00;3.35;;;;;;;;;;5096990;28;20065;-76
2021/04/04 09:54:54;;;;;;;12.00;3.33;;;;;;;;;;5096596;28;20458;-76
2021/04/04 09:57:19;;;;;;;15.77;4.00;;;;;;;;;;5096385;28;20081;-76
2021/04/04 09:59:45;;;;;;;14.93;3.97;;;;;;;;;;5096662;28;20044;-76
2021/04/04 10:02:10;;;;;;;11.93;3.83;;;;;;;;;;5096509;28;20474;-76
2021/04/04 10:04:45;;;;;;;12.50;3.20;;;;;;;;;;5096515;28;20040;-76
2021/04/04 10:07:10;;;;;;;21.02;5.15;;;;;;;;;;5096344;28;20044;-76
2021/04/04 10:09:39;;;;;;;11.95;3.45;;;;;;;;;;5096372;28;20131;-76
2021/04/04 10:12:05;;;;;;;10.77;3.30;;;;;;;;;;5096153;28;20040;-76
2021/04/04 10:14:30;;;;;;;12.15;3.58;;;;;;;;;;5095165;28;20039;-76
2021/04/04 10:17:10;;;;;;;13.45;3.35;;;;;;;;;;5095204;28;20036;-76
2021/04/04 10:19:52;;;;;;;12.30;3.10;;;;;;;;;;5096446;28;20035;-76
2021/04/04 10:22:18;;;;;;;11.27;3.10;;;;;;;;;;5096423;28;20036;-76
2021/04/04 10:24:43;;;;;;;11.13;2.97;;;;;;;;;;5094927;28;20028;-76
2021/04/04 10:27:27;;;;;;;13.85;3.15;;;;;;;;;;5095945;28;20378;-76
2021/04/04 10:30:18;;;;;;;11.93;3.63;;;;;;;;;;5094453;28;20048;-76
2021/04/04 10:32:48;;;;;;;11.15;3.10;;;;;;;;;;5094590;28;20036;-76
2021/04/04 10:35:32;;;;;;;9.13;3.25;;;;;;;;;;5094695;28;20028;-76
2021/04/04 10:38:03;;;;;;;18.67;3.10;;;;;;;;;;5094626;28;20036;-76
2021/04/04 10:40:48;;;;;;;10.40;2.78;;;;;;;;;;5095905;28;20108;-76
2021/04/04 10:43:20;;;;;;;12.65;3.20;;;;;;;;;;5094705;28;20424;-76
2021/04/04 10:46:05;;;;;;;12.43;2.85;;;;;;;;;;5094269;28;20043;-76
2021/04/04 10:48:42;;;;;;;7.72;2.60;;;;;;;;;;5094147;28;20505;-76
2021/04/04 10:51:10;;;;;;;9.02;2.78;;;;;;;;;;5095676;28;20110;-76
2021/04/04 10:53:36;;;;;;;7.15;2.45;;;;;;;;;;5094461;28;20450;-76
2021/04/04 10:56:03;;;;;;;14.30;3.38;;;;;;;;;;5095552;28;20398;-76
2021/04/04 10:58:29;;;;;;;9.45;2.65;;;;;;;;;;5094250;28;20032;-76
2021/04/04 11:00:57;;;;;;;10.10;2.67;;;;;;;;;;5095589;28;20040;-76
2021/04/04 11:03:23;;;;;;;9.63;2.35;;;;;;;;;;5095009;28;20089;-76
2021/04/04 11:05:49;;;;;;;8.07;2.83;;;;;;;;;;5095396;28;20032;-76
2021/04/04 11:08:19;;;;;;;10.07;3.05;;;;;;;;;;5095306;28;20035;-76
2021/04/04 11:10:48;;;;;;;12.98;2.50;;;;;;;;;;5095389;28;20039;-76
2021/04/04 11:13:15;;;;;;;9.32;2.33;;;;;;;;;;5095356;28;20038;-76
2021/04/04 11:16:09;;;;;;;9.88;2.58;;;;;;;;;;5094178;28;20024;-76
2021/04/04 11:18:42;;;;;;;8.40;2.60;;;;;;;;;;5095107;28;20039;-76
2021/04/04 11:21:11;;;;;;;8.02;3.08;;;;;;;;;;5095158;28;20040;-76
2021/04/04 11:23:38;;;;;;;10.63;3.05;;;;;;;;;;5077146;28;20573;-76
2021/04/04 11:26:22;;;;;;;10.00;2.85;;;;;;;;;;5095351;28;20055;-76
2021/04/04 11:29:12;;;;;;;8.82;2.78;;;;;;;;;;5094731;28;20523;-77
2021/04/04 11:31:39;;;;;;;8.82;3.10;;;;;;;;;;5094532;28;20049;-76
2021/04/04 11:34:23;;;;;;;15.95;3.67;;;;;;;;;;5094877;28;20393;-76
2021/04/04 11:36:49;;;;;;;10.95;3.85;;;;;;;;;;5094696;28;20040;-76
2021/04/04 11:39:15;;;;;;;8.07;2.70;;;;;;;;;;5092540;28;20389;-76
2021/04/04 11:41:57;;;;;;;6.25;2.42;;;;;;;;;;5094063;28;20044;-76
2021/04/04 11:44:38;;;;;;;14.10;4.10;;;;;;;;;;5094762;28;20073;-76
2021/04/04 11:47:06;;;;;;;8.10;2.95;;;;;;;;;;5094357;28;20473;-76
2021/04/04 11:49:31;;;;;;;12.60;3.25;;;;;;;;;;5094576;28;20039;-76
2021/04/04 11:51:57;;;;;;;9.77;2.60;;;;;;;;;;5094592;28;20023;-76
2021/04/04 11:54:41;;;;;;;10.88;2.70;;;;;;;;;;5094096;28;20492;-76
2021/04/04 11:57:07;;;;;;;7.15;2.50;;;;;;;;;;5094066;28;20024;-76
2021/04/04 11:59:32;;;;;;;8.70;2.63;;;;;;;;;;5094465;28;20024;-76
2021/04/04 12:01:58;;;;;;;5.82;2.28;;;;;;;;;;5092775;28;20108;-76
2021/04/04 12:04:30;;;;;;;7.15;2.30;;;;;;;;;;5094455;28;20067;-76
2021/04/04 12:07:03;;;;;;;8.57;2.38;;;;;;;;;;5092526;28;20043;-76
2021/04/04 12:09:29;;;;;;;4.68;1.98;;;;;;;;;;5090953;28;20048;-76
2021/04/04 12:11:55;;;;;;;8.85;2.28;;;;;;;;;;5092432;28;20615;-76
2021/04/04 12:14:21;;;;;;;7.10;2.50;;;;;;;;;;5093749;28;20057;-76
2021/04/04 12:16:47;;;;;;;8.70;2.45;;;;;;;;;;5093909;28;20158;-76
2021/04/04 12:19:23;;;;;;;6.93;3.30;;;;;;;;;;5091827;28;20055;-76
2021/04/04 12:21:50;;;;;;;6.18;2.35;;;;;;;;;;5093875;28;20450;-76
2021/04/04 12:24:16;;;;;;;7.85;2.33;;;;;;;;;;5092838;28;20416;-76
2021/04/04 12:26:41;;;;;;;9.88;2.95;;;;;;;;;;5092260;28;20042;-76
2021/04/04 12:29:06;;;;;;;10.38;2.78;;;;;;;;;;5092137;28;20048;-76
2021/04/04 12:31:41;;;;;;;14.05;3.20;;;;;;;;;;5093978;28;20036;-76
2021/04/04 12:34:07;;;;;;;12.60;3.03;;;;;;;;;;5093772;28;20036;-76
2021/04/04 12:36:42;;;;;;;11.02;2.92;;;;;;;;;;5092482;28;20501;-76
2021/04/04 12:39:08;;;;;;;12.48;2.85;;;;;;;;;;5092513;28;20051;-76
2021/04/04 12:41:34;;;;;;;7.65;2.72;;;;;;;;;;5093173;28;20062;-76
2021/04/04 12:43:59;;;;;;;10.38;3.10;;;;;;;;;;5092492;28;20035;-76
2021/04/04 12:46:31;;;;;;;13.10;3.47;;;;;;;;;;5092144;28;20123;-76
2021/04/04 12:48:57;;;;;;;11.52;3.20;;;;;;;;;;5093605;28;20043;-76
2021/04/04 12:51:23;;;;;;;8.95;2.72;;;;;;;;;;5093467;28;20386;-76
2021/04/04 12:53:48;;;;;;;10.35;3.20;;;;;;;;;;5093485;28;20035;-76
2021/04/04 12:56:14;;;;;;;9.00;2.88;;;;;;;;;;5093464;28;20051;-75
2021/04/04 12:58:41;;;;;;;6.68;2.70;;;;;;;;;;5092993;28;20114;-75
2021/04/04 13:01:14;;;;;;;7.25;2.63;;;;;;;;;;5093276;28;20420;-75
2021/04/04 13:03:39;;;;;;;8.00;3.72;;;;;;;;;;5093478;28;20088;-75
2021/04/04 13:06:05;;;;;;;7.70;3.67;;;;;;;;;;5092248;28;20032;-75
2021/04/04 13:08:32;;;;;;;13.52;3.72;;;;;;;;;;5091393;28;20616;-75
2021/04/04 13:11:02;;;;;;;8.27;3.83;;;;;;;;;;5093123;28;20126;-75
2021/04/04 13:13:30;;;;;;;9.85;4.15;;;;;;;;;;5093026;28;20527;-75
2021/04/04 13:16:17;;;;;;;10.55;4.50;;;;;;;;;;5093086;28;20493;-75
2021/04/04 13:18:44;;;;;;;13.43;4.07;;;;;;;;;;5092623;28;20048;-75
2021/04/04 13:21:16;;;;;;;10.27;4.20;;;;;;;;;;5092989;28;20036;-75
2021/04/04 13:23:44;;;;;;;14.80;5.65;;;;;;;;;;5092982;28;20044;-76
2021/04/04 13:26:17;;;;;;;11.75;4.50;;;;;;;;;;5091688;28;20101;-76
2021/04/04 13:28:43;;;;;;;10.88;3.92;;;;;;;;;;5073809;28;20034;-76
2021/04/04 13:31:10;;;;;;;15.80;6.00;;;;;;;;;;5093389;28;20456;-75
2021/04/04 13:33:37;;;;;;;12.88;5.15;;;;;;;;;;5093038;28;20120;-75
2021/04/04 13:36:19;;;;;;;12.82;5.68;;;;;;;;;;5092899;28;20035;-74
2021/04/04 13:38:47;;;;;;;18.50;5.70;;;;;;;;;;5071475;28;20094;-73
2021/04/04 13:41:14;;;;;;;9.98;5.20;;;;;;;;;;5072997;28;20050;-74
2021/04/04 13:43:44;;;;;;;9.88;4.47;;;;;;;;;;5073534;28;20040;-74
2021/04/04 13:46:29;;;;;;;12.00;6.15;;;;;;;;;;5075080;28;20047;-73
2021/04/04 13:48:56;;;;;;;13.50;5.85;;;;;;;;;;5092794;28;20039;-73
2021/04/04 13:51:23;;;;;;;11.02;4.60;;;;;;;;;;5092903;28;20044;-73
2021/04/04 13:54:01;;;;;;;10.50;5.18;;;;;;;;;;5092671;28;20024;-73
2021/04/04 13:56:34;;;;;;;14.77;5.38;;;;;;;;;;5092334;28;20664;-73
2021/04/04 13:59:29;;;;;;;9.98;4.82;;;;;;;;;;5092604;28;20492;-73
2021/04/04 14:01:57;;;;;;;10.90;5.18;;;;;;;;;;5081905;28;20044;-73
2021/04/04 14:04:26;;;;;;;12.65;5.95;;;;;;;;;;5094438;28;20458;-74
2021/04/04 14:07:00;;;;;;;8.55;4.43;;;;;;;;;;5096382;28;20093;-73
2021/04/04 14:09:35;;;;;;;13.10;4.70;;;;;;;;;;5096368;28;20101;-72
2021/04/04 14:12:03;;;;;;;10.50;3.63;;;;;;;;;;5095900;28;20039;-72
2021/04/04 14:14:29;;;;;;;7.47;3.90;;;;;;;;;;5096468;28;20040;-72
2021/04/04 14:16:56;;;;;;;6.97;3.88;;;;;;;;;;5095776;28;20024;-72
2021/04/04 14:19:24;;;;;;;5.85;3.65;;;;;;;;;;5095333;28;20086;-72
2021/04/04 14:21:51;;;;;;;7.43;3.88;;;;;;;;;;5095027;28;20043;-71
2021/04/04 14:24:16;;;;;;;7.13;3.67;;;;;;;;;;5096146;28;20035;-72
2021/04/04 14:26:41;;;;;;;4.88;3.50;;;;;;;;;;5095444;28;20039;-72
2021/04/04 14:29:11;;;;;;;6.95;3.63;;;;;;;;;;5095972;28;20054;-72
2021/04/04 14:31:37;;;;;;;12.70;4.78;;;;;;;;;;5095477;28;20038;-72
2021/04/04 14:34:03;;;;;;;6.85;4.00;;;;;;;;;;5095446;28;20567;-72
2021/04/04 14:36:29;;;;;;;7.68;4.63;;;;;;;;;;5095894;28;20024;-72
2021/04/04 14:38:55;;;;;;;8.35;4.50;;;;;;;;;;5095814;28;20042;-72
2021/04/04 14:41:20;;;;;;;10.65;4.18;;;;;;;;;;5094650;28;20040;-72
2021/04/04 14:46:12;;;;;;;6.20;3.85;;;;;;;;;;5095697;28;20537;-72
2021/04/04 14:48:37;;;;;;;8.70;3.60;;;;;;;;;;5095589;28;20027;-72
2021/04/04 14:51:03;;;;;;;7.93;3.70;;;;;;;;;;5095649;28;20120;-73
2021/04/04 14:53:29;;;;;;;7.65;4.28;;;;;;;;;;5095668;28;20040;-72
2021/04/04 14:56:00;;;;;;;6.72;3.80;;;;;;;;;;5095413;28;20028;-72
2021/04/04 14:58:28;;;;;;;11.43;4.07;;;;;;;;;;5095252;28;20145;-72
2021/04/04 15:00:54;;;;;;;7.45;3.60;;;;;;;;;;5094247;28;20031;-72